sensor_id;sensor_type;location;lat;lon;timestamp;P1;durP1;ratioP1;P2;durP2;ratioP2
38994;SDS011;24769;18.712;99.000;2023-05-07T00:01:15;88.60;;;87.00;;
38994;SDS011;24769;18.712;99.000;2023-05-07T00:03:42;80.00;;;77.75;;
38994;SDS011;24769;18.712;99.000;2023-05-07T00:06:08;77.00;;;74.25;;
38994;SDS011;24769;18.712;99.000;2023-05-07T00:08:38;77.25;;;73.75;;
38994;SDS011;24769;18.712;99.000;2023-05-07T00:11:04;77.25;;;74.50;;
38994;SDS011;24769;18.712;99.000;2023-05-07T00:13:31;80.00;;;77.75;;
38994;SDS011;24769;18.712;99.000;2023-05-07T00:16:01;97.80;;;97.80;;
38994;SDS011;24769;18.712;99.000;2023-05-07T00:18:28;102.00;;;100.80;;
38994;SDS011;24769;18.712;99.000;2023-05-07T00:23:21;79.25;;;78.00;;
38994;SDS011;24769;18.712;99.000;2023-05-07T00:25:48;158.20;;;156.20;;
38994;SDS011;24769;18.712;99.000;2023-05-07T00:28:15;82.25;;;82.00;;
38994;SDS011;24769;18.712;99.000;2023-05-07T00:30:41;80.00;;;79.75;;
38994;SDS011;24769;18.712;99.000;2023-05-07T00:33:08;75.00;;;70.50;;
38994;SDS011;24769;18.712;99.000;2023-05-07T00:35:34;71.75;;;64.75;;
38994;SDS011;24769;18.712;99.000;2023-05-07T00:38:01;70.25;;;62.25;;
38994;SDS011;24769;18.712;99.000;2023-05-07T00:40:27;76.00;;;72.00;;
38994;SDS011;24769;18.712;99.000;2023-05-07T00:42:54;72.50;;;66.25;;
38994;SDS011;24769;18.712;99.000;2023-05-07T00:45:24;69.50;;;61.75;;
38994;SDS011;24769;18.712;99.000;2023-05-07T00:47:57;71.50;;;64.75;;
38994;SDS011;24769;18.712;99.000;2023-05-07T00:50:26;70.50;;;63.25;;
38994;SDS011;24769;18.712;99.000;2023-05-07T00:52:53;72.50;;;65.50;;
38994;SDS011;24769;18.712;99.000;2023-05-07T00:55:21;72.75;;;67.00;;
38994;SDS011;24769;18.712;99.000;2023-05-07T00:57:48;70.60;;;63.00;;
38994;SDS011;24769;18.712;99.000;2023-05-07T01:00:16;65.20;;;54.40;;
38994;SDS011;24769;18.712;99.000;2023-05-07T01:02:43;67.40;;;58.20;;
38994;SDS011;24769;18.712;99.000;2023-05-07T01:05:12;68.00;;;56.80;;
38994;SDS011;24769;18.712;99.000;2023-05-07T01:07:41;62.60;;;51.20;;
38994;SDS011;24769;18.712;99.000;2023-05-07T01:10:08;63.40;;;52.00;;
38994;SDS011;24769;18.712;99.000;2023-05-07T01:12:36;63.80;;;52.20;;
38994;SDS011;24769;18.712;99.000;2023-05-07T01:15:05;61.40;;;50.80;;
38994;SDS011;24769;18.712;99.000;2023-05-07T01:17:37;67.40;;;57.80;;
38994;SDS011;24769;18.712;99.000;2023-05-07T01:20:07;61.40;;;50.00;;
38994;SDS011;24769;18.712;99.000;2023-05-07T01:22:36;63.60;;;53.00;;
38994;SDS011;24769;18.712;99.000;2023-05-07T01:25:04;60.20;;;49.80;;
38994;SDS011;24769;18.712;99.000;2023-05-07T01:27:32;62.40;;;51.60;;
38994;SDS011;24769;18.712;99.000;2023-05-07T01:30:00;62.40;;;51.40;;
38994;SDS011;24769;18.712;99.000;2023-05-07T01:32:38;62.60;;;51.80;;
38994;SDS011;24769;18.712;99.000;2023-05-07T01:35:20;63.00;;;52.20;;
38994;SDS011;24769;18.712;99.000;2023-05-07T01:37:50;62.00;;;51.40;;
38994;SDS011;24769;18.712;99.000;2023-05-07T01:40:16;62.60;;;51.60;;
38994;SDS011;24769;18.712;99.000;2023-05-07T01:42:43;60.20;;;50.00;;
38994;SDS011;24769;18.712;99.000;2023-05-07T01:45:11;60.60;;;50.00;;
38994;SDS011;24769;18.712;99.000;2023-05-07T01:47:37;62.80;;;51.00;;
38994;SDS011;24769;18.712;99.000;2023-05-07T01:50:05;58.60;;;48.60;;
38994;SDS011;24769;18.712;99.000;2023-05-07T01:52:33;59.00;;;49.00;;
38994;SDS011;24769;18.712;99.000;2023-05-07T01:55:00;60.60;;;50.00;;
38994;SDS011;24769;18.712;99.000;2023-05-07T01:57:27;61.80;;;51.00;;
38994;SDS011;24769;18.712;99.000;2023-05-07T01:59:53;59.20;;;48.80;;
38994;SDS011;24769;18.712;99.000;2023-05-07T02:02:20;60.60;;;49.40;;
38994;SDS011;24769;18.712;99.000;2023-05-07T02:04:46;60.60;;;49.60;;
38994;SDS011;24769;18.712;99.000;2023-05-07T02:07:13;58.60;;;48.00;;
38994;SDS011;24769;18.712;99.000;2023-05-07T02:09:39;61.80;;;51.00;;
38994;SDS011;24769;18.712;99.000;2023-05-07T02:12:06;60.60;;;50.00;;
38994;SDS011;24769;18.712;99.000;2023-05-07T02:14:32;58.20;;;48.00;;
38994;SDS011;24769;18.712;99.000;2023-05-07T02:16:59;56.40;;;46.80;;
38994;SDS011;24769;18.712;99.000;2023-05-07T02:19:25;59.80;;;50.20;;
38994;SDS011;24769;18.712;99.000;2023-05-07T02:21:52;55.20;;;46.00;;
38994;SDS011;24769;18.712;99.000;2023-05-07T02:24:19;60.00;;;49.40;;
38994;SDS011;24769;18.712;99.000;2023-05-07T02:26:46;56.00;;;46.60;;
38994;SDS011;24769;18.712;99.000;2023-05-07T02:29:12;59.80;;;49.40;;
38994;SDS011;24769;18.712;99.000;2023-05-07T02:31:39;59.80;;;49.40;;
38994;SDS011;24769;18.712;99.000;2023-05-07T02:34:05;57.40;;;47.60;;
38994;SDS011;24769;18.712;99.000;2023-05-07T02:36:32;59.20;;;49.00;;
38994;SDS011;24769;18.712;99.000;2023-05-07T02:38:58;57.80;;;47.80;;
38994;SDS011;24769;18.712;99.000;2023-05-07T02:41:25;57.60;;;47.80;;
38994;SDS011;24769;18.712;99.000;2023-05-07T02:43:53;58.60;;;48.80;;
38994;SDS011;24769;18.712;99.000;2023-05-07T02:46:19;59.00;;;48.80;;
38994;SDS011;24769;18.712;99.000;2023-05-07T02:48:46;57.00;;;48.00;;
38994;SDS011;24769;18.712;99.000;2023-05-07T02:51:12;56.60;;;47.40;;
38994;SDS011;24769;18.712;99.000;2023-05-07T02:53:39;54.80;;;46.60;;
38994;SDS011;24769;18.712;99.000;2023-05-07T02:56:06;58.60;;;48.60;;
38994;SDS011;24769;18.712;99.000;2023-05-07T02:58:32;56.20;;;47.40;;
38994;SDS011;24769;18.712;99.000;2023-05-07T03:00:59;55.60;;;46.60;;
38994;SDS011;24769;18.712;99.000;2023-05-07T03:03:25;55.00;;;45.60;;
38994;SDS011;24769;18.712;99.000;2023-05-07T03:05:52;56.20;;;47.00;;
38994;SDS011;24769;18.712;99.000;2023-05-07T03:08:18;57.60;;;47.80;;
38994;SDS011;24769;18.712;99.000;2023-05-07T03:10:45;58.60;;;48.80;;
38994;SDS011;24769;18.712;99.000;2023-05-07T03:13:12;58.00;;;48.20;;
38994;SDS011;24769;18.712;99.000;2023-05-07T03:15:38;57.20;;;47.80;;
38994;SDS011;24769;18.712;99.000;2023-05-07T03:18:05;60.80;;;50.00;;
38994;SDS011;24769;18.712;99.000;2023-05-07T03:20:32;57.40;;;47.40;;
38994;SDS011;24769;18.712;99.000;2023-05-07T03:22:58;54.40;;;45.40;;
38994;SDS011;24769;18.712;99.000;2023-05-07T03:25:25;56.40;;;46.80;;
38994;SDS011;24769;18.712;99.000;2023-05-07T03:27:51;59.60;;;49.20;;
38994;SDS011;24769;18.712;99.000;2023-05-07T03:30:18;57.80;;;47.80;;
38994;SDS011;24769;18.712;99.000;2023-05-07T03:32:45;60.60;;;49.60;;
38994;SDS011;24769;18.712;99.000;2023-05-07T03:35:11;56.40;;;47.20;;
38994;SDS011;24769;18.712;99.000;2023-05-07T03:37:38;57.40;;;48.00;;
38994;SDS011;24769;18.712;99.000;2023-05-07T03:40:05;58.20;;;48.40;;
38994;SDS011;24769;18.712;99.000;2023-05-07T03:42:33;56.80;;;47.00;;
38994;SDS011;24769;18.712;99.000;2023-05-07T03:44:59;46.20;;;39.40;;
38994;SDS011;24769;18.712;99.000;2023-05-07T03:47:26;56.00;;;47.00;;
38994;SDS011;24769;18.712;99.000;2023-05-07T03:49:52;56.80;;;47.00;;
38994;SDS011;24769;18.712;99.000;2023-05-07T03:52:20;57.60;;;48.00;;
38994;SDS011;24769;18.712;99.000;2023-05-07T03:54:51;55.20;;;46.20;;
38994;SDS011;24769;18.712;99.000;2023-05-07T03:57:19;55.20;;;46.20;;
38994;SDS011;24769;18.712;99.000;2023-05-07T03:59:46;54.40;;;45.00;;
38994;SDS011;24769;18.712;99.000;2023-05-07T04:02:12;54.40;;;45.40;;
38994;SDS011;24769;18.712;99.000;2023-05-07T04:04:39;52.40;;;44.20;;
38994;SDS011;24769;18.712;99.000;2023-05-07T04:07:05;57.60;;;47.80;;
38994;SDS011;24769;18.712;99.000;2023-05-07T04:09:32;54.80;;;45.40;;
38994;SDS011;24769;18.712;99.000;2023-05-07T04:11:59;55.40;;;46.20;;
38994;SDS011;24769;18.712;99.000;2023-05-07T04:14:26;58.40;;;47.60;;
38994;SDS011;24769;18.712;99.000;2023-05-07T04:16:53;52.80;;;44.40;;
38994;SDS011;24769;18.712;99.000;2023-05-07T04:19:19;57.20;;;47.60;;
38994;SDS011;24769;18.712;99.000;2023-05-07T04:21:46;55.80;;;46.00;;
38994;SDS011;24769;18.712;99.000;2023-05-07T04:24:12;55.60;;;46.40;;
38994;SDS011;24769;18.712;99.000;2023-05-07T04:26:39;54.80;;;45.80;;
38994;SDS011;24769;18.712;99.000;2023-05-07T04:29:05;55.80;;;46.80;;
38994;SDS011;24769;18.712;99.000;2023-05-07T04:31:32;55.60;;;46.40;;
38994;SDS011;24769;18.712;99.000;2023-05-07T04:33:59;54.20;;;45.20;;
38994;SDS011;24769;18.712;99.000;2023-05-07T04:36:26;56.60;;;47.00;;
38994;SDS011;24769;18.712;99.000;2023-05-07T04:38:55;53.40;;;44.60;;
38994;SDS011;24769;18.712;99.000;2023-05-07T04:41:22;56.20;;;46.80;;
38994;SDS011;24769;18.712;99.000;2023-05-07T04:43:48;56.00;;;46.80;;
38994;SDS011;24769;18.712;99.000;2023-05-07T04:46:15;51.60;;;43.60;;
38994;SDS011;24769;18.712;99.000;2023-05-07T04:48:41;52.60;;;44.20;;
38994;SDS011;24769;18.712;99.000;2023-05-07T04:51:08;56.00;;;46.80;;
38994;SDS011;24769;18.712;99.000;2023-05-07T04:53:34;45.80;;;39.40;;
38994;SDS011;24769;18.712;99.000;2023-05-07T04:56:01;47.80;;;40.80;;
38994;SDS011;24769;18.712;99.000;2023-05-07T04:58:27;51.80;;;43.80;;
38994;SDS011;24769;18.712;99.000;2023-05-07T05:00:57;51.60;;;43.60;;
38994;SDS011;24769;18.712;99.000;2023-05-07T05:03:24;54.20;;;45.20;;
38994;SDS011;24769;18.712;99.000;2023-05-07T05:05:51;51.00;;;43.00;;
38994;SDS011;24769;18.712;99.000;2023-05-07T05:08:18;54.80;;;45.80;;
38994;SDS011;24769;18.712;99.000;2023-05-07T05:10:44;56.20;;;46.80;;
38994;SDS011;24769;18.712;99.000;2023-05-07T05:13:13;55.60;;;46.60;;
38994;SDS011;24769;18.712;99.000;2023-05-07T05:15:40;55.00;;;45.80;;
38994;SDS011;24769;18.712;99.000;2023-05-07T05:18:06;55.00;;;46.00;;
38994;SDS011;24769;18.712;99.000;2023-05-07T05:20:33;54.20;;;45.20;;
38994;SDS011;24769;18.712;99.000;2023-05-07T05:23:00;49.80;;;42.40;;
38994;SDS011;24769;18.712;99.000;2023-05-07T05:25:26;56.20;;;47.00;;
38994;SDS011;24769;18.712;99.000;2023-05-07T05:27:53;57.60;;;47.60;;
38994;SDS011;24769;18.712;99.000;2023-05-07T05:30:20;54.60;;;45.60;;
38994;SDS011;24769;18.712;99.000;2023-05-07T05:32:47;55.60;;;46.60;;
38994;SDS011;24769;18.712;99.000;2023-05-07T05:35:13;51.40;;;43.00;;
38994;SDS011;24769;18.712;99.000;2023-05-07T05:37:40;53.40;;;45.00;;
38994;SDS011;24769;18.712;99.000;2023-05-07T05:40:06;51.40;;;43.40;;
38994;SDS011;24769;18.712;99.000;2023-05-07T05:42:33;53.80;;;45.00;;
38994;SDS011;24769;18.712;99.000;2023-05-07T05:45:00;52.00;;;43.80;;
38994;SDS011;24769;18.712;99.000;2023-05-07T05:47:26;51.40;;;43.40;;
38994;SDS011;24769;18.712;99.000;2023-05-07T05:49:53;55.00;;;46.00;;
38994;SDS011;24769;18.712;99.000;2023-05-07T05:52:19;54.80;;;45.20;;
38994;SDS011;24769;18.712;99.000;2023-05-07T05:54:49;54.40;;;45.40;;
38994;SDS011;24769;18.712;99.000;2023-05-07T05:57:15;51.80;;;43.80;;
38994;SDS011;24769;18.712;99.000;2023-05-07T05:59:42;51.80;;;43.80;;
38994;SDS011;24769;18.712;99.000;2023-05-07T06:02:09;52.80;;;44.40;;
38994;SDS011;24769;18.712;99.000;2023-05-07T06:04:40;51.00;;;43.00;;
38994;SDS011;24769;18.712;99.000;2023-05-07T06:07:07;53.80;;;44.80;;
38994;SDS011;24769;18.712;99.000;2023-05-07T06:09:36;50.20;;;42.60;;
38994;SDS011;24769;18.712;99.000;2023-05-07T06:12:03;51.20;;;43.00;;
38994;SDS011;24769;18.712;99.000;2023-05-07T06:14:30;49.40;;;42.20;;
38994;SDS011;24769;18.712;99.000;2023-05-07T06:16:56;49.20;;;42.00;;
38994;SDS011;24769;18.712;99.000;2023-05-07T06:19:23;49.00;;;41.60;;
38994;SDS011;24769;18.712;99.000;2023-05-07T06:21:51;43.00;;;37.20;;
38994;SDS011;24769;18.712;99.000;2023-05-07T06:24:18;48.60;;;41.60;;
38994;SDS011;24769;18.712;99.000;2023-05-07T06:26:45;47.80;;;40.80;;
38994;SDS011;24769;18.712;99.000;2023-05-07T06:29:11;51.00;;;43.00;;
38994;SDS011;24769;18.712;99.000;2023-05-07T06:31:38;51.00;;;43.00;;
38994;SDS011;24769;18.712;99.000;2023-05-07T06:34:05;46.40;;;39.80;;
38994;SDS011;24769;18.712;99.000;2023-05-07T06:36:31;40.20;;;34.20;;
38994;SDS011;24769;18.712;99.000;2023-05-07T06:38:58;45.80;;;39.00;;
38994;SDS011;24769;18.712;99.000;2023-05-07T06:41:25;48.80;;;41.80;;
38994;SDS011;24769;18.712;99.000;2023-05-07T06:43:52;47.60;;;40.60;;
38994;SDS011;24769;18.712;99.000;2023-05-07T06:46:18;50.00;;;42.60;;
38994;SDS011;24769;18.712;99.000;2023-05-07T06:48:45;47.80;;;41.00;;
38994;SDS011;24769;18.712;99.000;2023-05-07T06:51:12;46.00;;;40.00;;
38994;SDS011;24769;18.712;99.000;2023-05-07T06:53:38;47.80;;;40.80;;
38994;SDS011;24769;18.712;99.000;2023-05-07T06:56:05;47.80;;;40.80;;
38994;SDS011;24769;18.712;99.000;2023-05-07T06:58:32;46.00;;;39.20;;
38994;SDS011;24769;18.712;99.000;2023-05-07T07:00:59;46.60;;;39.80;;
38994;SDS011;24769;18.712;99.000;2023-05-07T07:03:26;44.60;;;38.40;;
38994;SDS011;24769;18.712;99.000;2023-05-07T07:05:53;48.20;;;41.20;;
38994;SDS011;24769;18.712;99.000;2023-05-07T07:08:20;47.60;;;40.60;;
38994;SDS011;24769;18.712;99.000;2023-05-07T07:10:47;47.60;;;40.60;;
38994;SDS011;24769;18.712;99.000;2023-05-07T07:13:14;46.40;;;39.80;;
38994;SDS011;24769;18.712;99.000;2023-05-07T07:15:41;48.20;;;41.20;;
38994;SDS011;24769;18.712;99.000;2023-05-07T07:18:08;43.20;;;37.60;;
38994;SDS011;24769;18.712;99.000;2023-05-07T07:20:35;49.00;;;41.40;;
38994;SDS011;24769;18.712;99.000;2023-05-07T07:23:02;45.20;;;39.00;;
38994;SDS011;24769;18.712;99.000;2023-05-07T07:25:28;46.60;;;40.00;;
38994;SDS011;24769;18.712;99.000;2023-05-07T07:27:55;43.00;;;37.00;;
38994;SDS011;24769;18.712;99.000;2023-05-07T07:30:22;46.40;;;39.80;;
38994;SDS011;24769;18.712;99.000;2023-05-07T07:32:48;45.80;;;39.00;;
38994;SDS011;24769;18.712;99.000;2023-05-07T07:35:15;46.80;;;40.20;;
38994;SDS011;24769;18.712;99.000;2023-05-07T07:37:42;47.20;;;41.00;;
38994;SDS011;24769;18.712;99.000;2023-05-07T07:40:09;50.00;;;42.80;;
38994;SDS011;24769;18.712;99.000;2023-05-07T07:42:37;51.80;;;43.80;;
38994;SDS011;24769;18.712;99.000;2023-05-07T07:45:03;49.80;;;42.60;;
38994;SDS011;24769;18.712;99.000;2023-05-07T07:47:30;48.40;;;41.00;;
38994;SDS011;24769;18.712;99.000;2023-05-07T07:49:57;49.20;;;42.00;;
38994;SDS011;24769;18.712;99.000;2023-05-07T07:52:24;48.60;;;41.60;;
38994;SDS011;24769;18.712;99.000;2023-05-07T07:54:51;48.00;;;41.00;;
38994;SDS011;24769;18.712;99.000;2023-05-07T07:57:17;43.60;;;37.60;;
38994;SDS011;24769;18.712;99.000;2023-05-07T07:59:44;41.00;;;36.00;;
38994;SDS011;24769;18.712;99.000;2023-05-07T08:02:11;49.20;;;42.00;;
38994;SDS011;24769;18.712;99.000;2023-05-07T08:04:37;49.20;;;42.20;;
38994;SDS011;24769;18.712;99.000;2023-05-07T08:07:04;46.40;;;39.80;;
38994;SDS011;24769;18.712;99.000;2023-05-07T08:09:31;48.00;;;41.00;;
38994;SDS011;24769;18.712;99.000;2023-05-07T08:11:57;47.60;;;39.60;;
38994;SDS011;24769;18.712;99.000;2023-05-07T08:14:24;45.80;;;39.20;;
38994;SDS011;24769;18.712;99.000;2023-05-07T08:16:51;48.40;;;41.40;;
38994;SDS011;24769;18.712;99.000;2023-05-07T08:19:18;51.00;;;42.00;;
38994;SDS011;24769;18.712;99.000;2023-05-07T08:21:45;45.20;;;39.00;;
38994;SDS011;24769;18.712;99.000;2023-05-07T08:24:13;47.00;;;40.00;;
38994;SDS011;24769;18.712;99.000;2023-05-07T08:26:40;42.00;;;37.00;;
38994;SDS011;24769;18.712;99.000;2023-05-07T08:29:07;48.00;;;41.00;;
38994;SDS011;24769;18.712;99.000;2023-05-07T08:31:34;48.20;;;41.20;;
38994;SDS011;24769;18.712;99.000;2023-05-07T08:34:00;50.00;;;43.00;;
38994;SDS011;24769;18.712;99.000;2023-05-07T08:36:29;49.40;;;42.20;;
38994;SDS011;24769;18.712;99.000;2023-05-07T08:38:56;46.80;;;40.00;;
38994;SDS011;24769;18.712;99.000;2023-05-07T08:41:22;44.00;;;38.00;;
38994;SDS011;24769;18.712;99.000;2023-05-07T08:43:50;48.60;;;41.00;;
38994;SDS011;24769;18.712;99.000;2023-05-07T08:46:17;41.80;;;36.20;;
38994;SDS011;24769;18.712;99.000;2023-05-07T08:48:48;51.00;;;43.00;;
38994;SDS011;24769;18.712;99.000;2023-05-07T08:51:19;48.80;;;41.80;;
38994;SDS011;24769;18.712;99.000;2023-05-07T08:53:47;48.20;;;41.20;;
38994;SDS011;24769;18.712;99.000;2023-05-07T08:56:15;46.60;;;40.00;;
38994;SDS011;24769;18.712;99.000;2023-05-07T08:58:43;43.40;;;37.80;;
38994;SDS011;24769;18.712;99.000;2023-05-07T09:01:11;48.60;;;41.60;;
38994;SDS011;24769;18.712;99.000;2023-05-07T09:03:40;51.40;;;44.40;;
38994;SDS011;24769;18.712;99.000;2023-05-07T09:06:07;46.60;;;39.80;;
38994;SDS011;24769;18.712;99.000;2023-05-07T09:08:33;51.80;;;43.80;;
38994;SDS011;24769;18.712;99.000;2023-05-07T09:11:01;48.60;;;41.40;;
38994;SDS011;24769;18.712;99.000;2023-05-07T09:13:28;47.00;;;40.00;;
38994;SDS011;24769;18.712;99.000;2023-05-07T09:15:55;45.80;;;39.40;;
38994;SDS011;24769;18.712;99.000;2023-05-07T09:18:23;48.40;;;41.40;;
38994;SDS011;24769;18.712;99.000;2023-05-07T09:20:50;46.40;;;39.60;;
38994;SDS011;24769;18.712;99.000;2023-05-07T09:23:17;47.00;;;40.40;;
38994;SDS011;24769;18.712;99.000;2023-05-07T09:25:44;48.20;;;40.40;;
38994;SDS011;24769;18.712;99.000;2023-05-07T09:28:10;47.80;;;41.00;;
38994;SDS011;24769;18.712;99.000;2023-05-07T09:30:37;45.60;;;38.80;;
38994;SDS011;24769;18.712;99.000;2023-05-07T09:33:03;44.40;;;38.20;;
38994;SDS011;24769;18.712;99.000;2023-05-07T09:35:30;49.40;;;42.20;;
38994;SDS011;24769;18.712;99.000;2023-05-07T09:37:57;46.60;;;40.00;;
38994;SDS011;24769;18.712;99.000;2023-05-07T09:40:28;45.80;;;39.20;;
38994;SDS011;24769;18.712;99.000;2023-05-07T09:42:56;49.00;;;41.80;;
38994;SDS011;24769;18.712;99.000;2023-05-07T09:45:33;43.60;;;38.00;;
38994;SDS011;24769;18.712;99.000;2023-05-07T09:48:00;46.40;;;39.60;;
38994;SDS011;24769;18.712;99.000;2023-05-07T09:50:36;46.00;;;39.40;;
38994;SDS011;24769;18.712;99.000;2023-05-07T09:53:14;46.20;;;40.00;;
38994;SDS011;24769;18.712;99.000;2023-05-07T09:55:43;46.00;;;39.20;;
38994;SDS011;24769;18.712;99.000;2023-05-07T09:58:11;48.00;;;41.00;;
38994;SDS011;24769;18.712;99.000;2023-05-07T10:00:41;49.80;;;42.60;;
38994;SDS011;24769;18.712;99.000;2023-05-07T10:03:08;46.80;;;40.60;;
38994;SDS011;24769;18.712;99.000;2023-05-07T10:05:36;48.60;;;41.40;;
38994;SDS011;24769;18.712;99.000;2023-05-07T10:08:03;49.80;;;42.40;;
38994;SDS011;24769;18.712;99.000;2023-05-07T10:10:33;47.60;;;41.00;;
38994;SDS011;24769;18.712;99.000;2023-05-07T10:13:00;48.20;;;41.40;;
38994;SDS011;24769;18.712;99.000;2023-05-07T10:15:31;48.60;;;41.00;;
38994;SDS011;24769;18.712;99.000;2023-05-07T10:17:57;45.40;;;39.00;;
38994;SDS011;24769;18.712;99.000;2023-05-07T10:20:24;47.20;;;40.20;;
38994;SDS011;24769;18.712;99.000;2023-05-07T10:22:52;50.40;;;42.80;;
38994;SDS011;24769;18.712;99.000;2023-05-07T10:25:23;46.60;;;39.40;;
38994;SDS011;24769;18.712;99.000;2023-05-07T10:27:54;47.20;;;40.60;;
38994;SDS011;24769;18.712;99.000;2023-05-07T10:30:58;50.20;;;42.80;;
38994;SDS011;24769;18.712;99.000;2023-05-07T10:33:29;45.80;;;39.40;;
38994;SDS011;24769;18.712;99.000;2023-05-07T10:35:58;48.80;;;41.60;;
38994;SDS011;24769;18.712;99.000;2023-05-07T10:38:28;47.40;;;40.60;;
38994;SDS011;24769;18.712;99.000;2023-05-07T10:40:54;45.40;;;39.60;;
38994;SDS011;24769;18.712;99.000;2023-05-07T10:43:21;48.20;;;41.40;;
38994;SDS011;24769;18.712;99.000;2023-05-07T10:51:31;47.40;;;40.80;;
38994;SDS011;24769;18.712;99.000;2023-05-07T10:56:38;49.80;;;42.60;;
38994;SDS011;24769;18.712;99.000;2023-05-07T11:02:07;51.00;;;43.00;;
38994;SDS011;24769;18.712;99.000;2023-05-07T11:04:36;50.00;;;42.40;;
38994;SDS011;24769;18.712;99.000;2023-05-07T11:17:31;55.60;;;46.00;;
38994;SDS011;24769;18.712;99.000;2023-05-07T11:20:01;52.20;;;44.40;;
38994;SDS011;24769;18.712;99.000;2023-05-07T11:25:01;52.20;;;44.20;;
38994;SDS011;24769;18.712;99.000;2023-05-07T11:27:29;53.00;;;44.40;;
38994;SDS011;24769;18.712;99.000;2023-05-07T11:29:55;50.40;;;42.80;;
38994;SDS011;24769;18.712;99.000;2023-05-07T11:32:22;51.00;;;43.00;;
38994;SDS011;24769;18.712;99.000;2023-05-07T11:34:53;49.40;;;42.40;;
38994;SDS011;24769;18.712;99.000;2023-05-07T11:37:21;52.40;;;43.60;;
38994;SDS011;24769;18.712;99.000;2023-05-07T11:39:49;51.20;;;43.20;;
38994;SDS011;24769;18.712;99.000;2023-05-07T11:42:29;52.60;;;43.60;;
38994;SDS011;24769;18.712;99.000;2023-05-07T11:44:57;47.60;;;40.80;;
38994;SDS011;24769;18.712;99.000;2023-05-07T11:47:24;50.00;;;42.60;;
38994;SDS011;24769;18.712;99.000;2023-05-07T11:49:51;51.60;;;43.80;;
38994;SDS011;24769;18.712;99.000;2023-05-07T11:52:19;52.20;;;44.00;;
38994;SDS011;24769;18.712;99.000;2023-05-07T11:54:50;50.40;;;42.80;;
38994;SDS011;24769;18.712;99.000;2023-05-07T11:57:18;52.00;;;44.00;;
38994;SDS011;24769;18.712;99.000;2023-05-07T11:59:45;51.00;;;43.00;;
38994;SDS011;24769;18.712;99.000;2023-05-07T12:02:15;55.40;;;46.40;;
38994;SDS011;24769;18.712;99.000;2023-05-07T12:04:43;53.60;;;45.00;;
38994;SDS011;24769;18.712;99.000;2023-05-07T12:07:13;51.20;;;43.40;;
38994;SDS011;24769;18.712;99.000;2023-05-07T12:09:41;51.80;;;44.00;;
38994;SDS011;24769;18.712;99.000;2023-05-07T12:12:08;53.40;;;44.80;;
38994;SDS011;24769;18.712;99.000;2023-05-07T12:14:39;55.80;;;46.80;;
38994;SDS011;24769;18.712;99.000;2023-05-07T12:17:09;53.20;;;45.00;;
38994;SDS011;24769;18.712;99.000;2023-05-07T12:19:38;55.00;;;46.00;;
38994;SDS011;24769;18.712;99.000;2023-05-07T12:22:09;55.40;;;46.40;;
38994;SDS011;24769;18.712;99.000;2023-05-07T12:24:45;52.20;;;44.00;;
38994;SDS011;24769;18.712;99.000;2023-05-07T12:27:13;55.80;;;46.00;;
38994;SDS011;24769;18.712;99.000;2023-05-07T12:29:44;55.00;;;46.00;;
38994;SDS011;24769;18.712;99.000;2023-05-07T12:32:14;55.80;;;46.80;;
38994;SDS011;24769;18.712;99.000;2023-05-07T12:34:45;53.80;;;44.80;;
38994;SDS011;24769;18.712;99.000;2023-05-07T12:37:12;57.20;;;47.40;;
38994;SDS011;24769;18.712;99.000;2023-05-07T12:39:49;57.40;;;47.60;;
38994;SDS011;24769;18.712;99.000;2023-05-07T12:42:32;54.20;;;45.20;;
38994;SDS011;24769;18.712;99.000;2023-05-07T12:45:18;54.80;;;45.80;;
38994;SDS011;24769;18.712;99.000;2023-05-07T12:48:30;59.20;;;48.40;;
38994;SDS011;24769;18.712;99.000;2023-05-07T12:51:02;58.20;;;48.00;;
38994;SDS011;24769;18.712;99.000;2023-05-07T12:53:29;51.80;;;43.80;;
38994;SDS011;24769;18.712;99.000;2023-05-07T12:55:57;53.20;;;44.80;;
38994;SDS011;24769;18.712;99.000;2023-05-07T13:00:55;57.00;;;47.20;;
38994;SDS011;24769;18.712;99.000;2023-05-07T13:05:58;60.80;;;50.40;;
38994;SDS011;24769;18.712;99.000;2023-05-07T13:08:33;58.00;;;47.20;;
38994;SDS011;24769;18.712;99.000;2023-05-07T13:11:03;61.20;;;50.20;;
38994;SDS011;24769;18.712;99.000;2023-05-07T13:13:30;58.20;;;48.20;;
38994;SDS011;24769;18.712;99.000;2023-05-07T13:15:58;62.60;;;51.60;;
38994;SDS011;24769;18.712;99.000;2023-05-07T13:18:25;50.40;;;42.40;;
38994;SDS011;24769;18.712;99.000;2023-05-07T13:20:53;60.00;;;49.80;;
38994;SDS011;24769;18.712;99.000;2023-05-07T13:23:20;60.40;;;50.00;;
38994;SDS011;24769;18.712;99.000;2023-05-07T13:25:47;58.80;;;47.80;;
38994;SDS011;24769;18.712;99.000;2023-05-07T13:28:14;59.00;;;48.80;;
38994;SDS011;24769;18.712;99.000;2023-05-07T13:30:41;60.60;;;50.00;;
38994;SDS011;24769;18.712;99.000;2023-05-07T13:33:08;60.00;;;49.60;;
38994;SDS011;24769;18.712;99.000;2023-05-07T13:35:35;61.20;;;50.20;;
38994;SDS011;24769;18.712;99.000;2023-05-07T13:38:02;62.80;;;51.80;;
38994;SDS011;24769;18.712;99.000;2023-05-07T13:40:28;61.60;;;50.60;;
38994;SDS011;24769;18.712;99.000;2023-05-07T13:42:56;65.00;;;53.60;;
38994;SDS011;24769;18.712;99.000;2023-05-07T13:45:24;66.00;;;56.20;;
38994;SDS011;24769;18.712;99.000;2023-05-07T13:47:52;66.00;;;56.20;;
38994;SDS011;24769;18.712;99.000;2023-05-07T13:50:18;66.40;;;56.20;;
38994;SDS011;24769;18.712;99.000;2023-05-07T13:52:45;65.80;;;55.40;;
38994;SDS011;24769;18.712;99.000;2023-05-07T13:55:18;67.40;;;56.80;;
38994;SDS011;24769;18.712;99.000;2023-05-07T13:57:46;68.00;;;57.80;;
38994;SDS011;24769;18.712;99.000;2023-05-07T14:00:13;63.60;;;52.60;;
38994;SDS011;24769;18.712;99.000;2023-05-07T14:02:41;68.80;;;60.40;;
38994;SDS011;24769;18.712;99.000;2023-05-07T14:05:08;67.25;;;57.50;;
38994;SDS011;24769;18.712;99.000;2023-05-07T14:07:35;68.50;;;59.50;;
38994;SDS011;24769;18.712;99.000;2023-05-07T14:10:02;70.25;;;62.25;;
38994;SDS011;24769;18.712;99.000;2023-05-07T14:12:29;69.80;;;61.60;;
38994;SDS011;24769;18.712;99.000;2023-05-07T14:14:55;67.20;;;58.00;;
38994;SDS011;24769;18.712;99.000;2023-05-07T14:17:22;66.50;;;56.00;;
38994;SDS011;24769;18.712;99.000;2023-05-07T14:19:51;67.40;;;57.20;;
38994;SDS011;24769;18.712;99.000;2023-05-07T14:22:22;70.00;;;61.75;;
38994;SDS011;24769;18.712;99.000;2023-05-07T14:24:49;69.25;;;60.25;;
38994;SDS011;24769;18.712;99.000;2023-05-07T14:27:16;69.25;;;60.50;;
38994;SDS011;24769;18.712;99.000;2023-05-07T14:29:42;66.50;;;56.50;;
38994;SDS011;24769;18.712;99.000;2023-05-07T14:32:11;67.60;;;57.80;;
38994;SDS011;24769;18.712;99.000;2023-05-07T14:34:37;69.50;;;61.50;;
38994;SDS011;24769;18.712;99.000;2023-05-07T14:37:04;69.00;;;60.00;;
38994;SDS011;24769;18.712;99.000;2023-05-07T14:39:30;62.25;;;51.25;;
38994;SDS011;24769;18.712;99.000;2023-05-07T14:41:57;68.00;;;59.00;;
38994;SDS011;24769;18.712;99.000;2023-05-07T14:44:25;64.75;;;53.75;;